Time;durP1;ratioP1;P1;durP2;ratioP2;P2;SDS_P1;SDS_P2;PMS_P1;PMS_P2;Temp;Humidity;BMP_temperature;BMP_pressure;BME280_temperature;BME280_humidity;BME280_pressure;Samples;Min_cycle;Max_cycle;Signal;HPM_P1;HPM_P2
2021/11/22 00:00:36;;;;;;;28.70;17.10;;;;;;;5.81;84.34;96201.86;105413;1311;26199;-84
2021/11/22 00:03:18;;;;;;;31.20;18.50;;;;;;;5.81;84.63;96195.66;105464;1310;26632;-84
2021/11/22 00:05:49;;;;;;;26.00;16.20;;;;;;;5.80;84.77;96195.39;105427;1311;26471;-84
2021/11/22 00:08:20;;;;;;;30.40;17.90;;;;;;;5.79;84.59;96196.29;105463;1314;29207;-84
2021/11/22 00:10:52;;;;;;;22.40;14.30;;;;;;;5.77;84.33;96203.27;105451;1309;31317;-84
2021/11/22 00:13:23;;;;;;;21.20;13.30;;;;;;;5.78;84.33;96208.75;105397;1311;29754;-84
2021/11/22 00:15:54;;;;;;;21.50;12.80;;;;;;;5.80;84.04;96205.85;105405;1310;26313;-84
2021/11/22 00:18:26;;;;;;;21.20;13.70;;;;;;;5.82;83.89;96209.96;105299;1315;28071;-84
2021/11/22 00:20:57;;;;;;;20.90;13.40;;;;;;;5.84;83.83;96216.28;105442;1316;29109;-84
2021/11/22 00:23:28;;;;;;;24.00;14.00;;;;;;;5.86;84.00;96211.13;105413;1310;27958;-84
2021/11/22 00:25:59;;;;;;;23.30;13.80;;;;;;;5.88;84.00;96209.61;105343;1309;27948;-84
2021/11/22 00:28:29;;;;;;;29.80;16.80;;;;;;;5.91;84.34;96207.60;105355;1310;28139;-85
2021/11/22 00:31:00;;;;;;;27.30;17.10;;;;;;;5.93;84.48;96212.41;105384;1309;27143;-84
2021/11/22 00:33:31;;;;;;;31.40;19.80;;;;;;;5.95;84.58;96216.98;105359;1310;27623;-84
2021/11/22 00:36:02;;;;;;;30.70;19.30;;;;;;;5.96;84.51;96217.52;105353;1311;27191;-84
2021/11/22 00:38:33;;;;;;;30.90;19.90;;;;;;;5.96;84.62;96219.05;105427;1312;27103;-84
2021/11/22 00:41:05;;;;;;;28.50;19.20;;;;;;;5.88;84.77;96227.46;105442;1309;31641;-85
2021/11/22 00:43:36;;;;;;;31.60;20.20;;;;;;;5.82;84.80;96230.84;105414;1315;28366;-85
2021/11/22 00:46:10;;;;;;;27.10;18.10;;;;;;;5.80;85.00;96234.32;105443;1312;27929;-85
2021/11/22 00:48:41;;;;;;;29.30;18.00;;;;;;;5.76;84.80;96235.03;105316;1309;30019;-85
2021/11/22 00:51:12;;;;;;;28.00;18.00;;;;;;;5.68;84.81;96231.68;105387;1310;27646;-85
2021/11/22 00:53:43;;;;;;;25.50;16.10;;;;;;;5.62;84.96;96243.41;105462;1310;27876;-85
2021/11/22 00:56:17;;;;;;;25.70;15.80;;;;;;;5.57;84.90;96247.19;105455;1309;29029;-85
2021/11/22 00:58:48;;;;;;;24.10;15.60;;;;;;;5.53;84.85;96250.02;105475;1309;28128;-85
2021/11/22 01:01:19;;;;;;;22.90;15.20;;;;;;;5.48;84.95;96248.81;105407;1309;29265;-85
2021/11/22 01:03:50;;;;;;;21.70;14.00;;;;;;;5.48;85.08;96249.75;105435;1315;31389;-85
2021/11/22 01:06:20;;;;;;;23.90;15.40;;;;;;;5.48;85.10;96250.75;105454;1309;27661;-85
2021/11/22 01:08:51;;;;;;;24.10;15.00;;;;;;;5.47;84.90;96250.23;105518;1309;27742;-85
2021/11/22 01:11:23;;;;;;;23.00;14.80;;;;;;;5.47;85.00;96250.02;105419;1313;26999;-86
2021/11/22 01:13:54;;;;;;;23.40;15.20;;;;;;;5.49;84.92;96255.09;105394;1310;28364;-85
2021/11/22 01:16:26;;;;;;;25.20;15.40;;;;;;;5.52;85.09;96253.16;105380;1311;28305;-85
2021/11/22 01:18:57;;;;;;;25.20;15.80;;;;;;;5.56;84.95;96252.34;105444;1310;27347;-85
2021/11/22 01:21:29;;;;;;;28.60;16.20;;;;;;;5.58;84.96;96254.40;105392;1313;28572;-85
2021/11/22 01:24:00;;;;;;;22.50;15.00;;;;;;;5.59;84.88;96251.66;105388;1309;42991;-85
2021/11/22 01:26:32;;;;;;;24.50;15.90;;;;;;;5.59;85.03;96253.66;105381;1316;44625;-85
2021/11/22 01:29:03;;;;;;;23.70;15.00;;;;;;;5.56;84.85;96253.77;105423;1310;26498;-86
2021/11/22 01:31:34;;;;;;;23.10;14.30;;;;;;;5.59;85.13;96254.92;105428;1310;25952;-86
2021/11/22 01:34:06;;;;;;;25.90;15.40;;;;;;;5.60;84.78;96251.66;105433;1315;26808;-85
2021/11/22 01:36:37;;;;;;;25.40;16.90;;;;;;;5.59;84.90;96248.14;105489;1309;30183;-85
2021/11/22 01:39:09;;;;;;;25.90;16.50;;;;;;;5.56;84.80;96251.02;105431;1309;39217;-86
2021/11/22 01:41:40;;;;;;;23.80;15.20;;;;;;;5.51;85.04;96253.00;105399;1310;28483;-85
2021/11/22 01:44:13;;;;;;;28.00;15.80;;;;;;;5.45;85.17;96251.90;105538;1314;27616;-85
2021/11/22 01:46:48;;;;;;;27.40;16.30;;;;;;;5.40;85.34;96252.08;105389;1313;47159;-85
2021/11/22 01:49:20;;;;;;;27.00;16.80;;;;;;;5.37;85.40;96248.98;105588;1310;30157;-85
2021/11/22 01:51:51;;;;;;;27.30;17.70;;;;;;;5.35;85.54;96249.74;105453;1309;30661;-85
2021/11/22 01:54:22;;;;;;;23.80;16.10;;;;;;;5.33;85.42;96253.77;105436;1309;26570;-85
2021/11/22 01:56:53;;;;;;;27.80;16.80;;;;;;;5.33;85.64;96252.55;105413;1309;44156;-85
2021/11/22 01:59:24;;;;;;;24.20;15.00;;;;;;;5.32;85.79;96255.98;105427;1310;31457;-85
2021/11/22 02:01:55;;;;;;;22.90;14.60;;;;;;;5.35;86.05;96256.05;105412;1309;28326;-86
2021/11/22 02:04:26;;;;;;;22.10;13.90;;;;;;;5.37;86.05;96258.39;105391;1309;32363;-85
2021/11/22 02:06:57;;;;;;;27.50;14.60;;;;;;;5.40;86.14;96260.76;105444;1315;26174;-85
2021/11/22 02:09:28;;;;;;;25.10;15.10;;;;;;;5.43;86.08;96266.98;105430;1309;27242;-85
2021/11/22 02:11:59;;;;;;;22.10;14.60;;;;;;;5.47;85.97;96269.41;105385;1309;30094;-85
2021/11/22 02:14:30;;;;;;;25.10;16.00;;;;;;;5.49;86.17;96275.11;105120;1310;432364;-85
2021/11/22 02:17:01;;;;;;;27.90;17.10;;;;;;;5.51;85.88;96272.04;105416;1315;26915;-85
2021/11/22 02:19:37;;;;;;;28.40;16.80;;;;;;;5.53;85.90;96269.41;105372;1309;30908;-85
2021/11/22 02:22:08;;;;;;;29.60;18.20;;;;;;;5.51;85.60;96268.83;105418;1313;39313;-85
2021/11/22 02:24:39;;;;;;;33.50;20.30;;;;;;;5.51;85.68;96271.88;105435;1310;29265;-85
2021/11/22 02:27:10;;;;;;;35.20;22.80;;;;;;;5.50;85.45;96274.33;105327;1309;24967;-85
2021/11/22 02:29:41;;;;;;;35.80;22.20;;;;;;;5.46;85.67;96275.30;105393;1310;30597;-85
2021/11/22 02:32:12;;;;;;;39.10;22.60;;;;;;;5.43;85.60;96276.17;105344;1309;26728;-85
2021/11/22 02:34:44;;;;;;;41.40;25.00;;;;;;;5.43;85.68;96273.70;105477;1311;33820;-85
2021/11/22 02:37:15;;;;;;;40.40;26.70;;;;;;;5.42;85.59;96280.59;105434;1309;32191;-85
2021/11/22 02:39:46;;;;;;;45.40;27.20;;;;;;;5.36;85.75;96284.48;105445;1311;28006;-85
2021/11/22 02:42:25;;;;;;;44.60;27.00;;;;;;;5.31;85.74;96279.30;105505;1308;29457;-85
2021/11/22 02:44:56;;;;;;;45.40;28.00;;;;;;;5.26;85.91;96280.64;105415;1313;32764;-84
2021/11/22 02:47:28;;;;;;;48.30;29.40;;;;;;;5.23;86.02;96279.79;105403;1309;35159;-85
2021/11/22 02:49:59;;;;;;;46.70;27.90;;;;;;;5.22;86.22;96283.67;105428;1310;27946;-85
2021/11/22 02:52:30;;;;;;;45.70;26.50;;;;;;;5.22;86.05;96286.52;105390;1311;28539;-85
2021/11/22 02:55:00;;;;;;;47.80;27.70;;;;;;;5.22;86.16;96289.96;105466;1310;26646;-85
2021/11/22 02:57:31;;;;;;;43.10;26.30;;;;;;;5.20;86.19;96295.88;105463;1313;29151;-85
2021/11/22 03:00:04;;;;;;;50.10;30.80;;;;;;;5.18;86.13;96297.49;105453;1313;30532;-85
2021/11/22 03:02:36;;;;;;;46.70;27.80;;;;;;;5.15;86.34;96304.42;105418;1310;27661;-86
2021/11/22 03:05:08;;;;;;;47.50;28.60;;;;;;;5.11;86.47;96304.97;105391;1311;28550;-85
2021/11/22 03:07:40;;;;;;;45.80;26.40;;;;;;;5.07;86.62;96310.56;105431;1309;28598;-85
2021/11/22 03:10:13;;;;;;;43.90;27.80;;;;;;;5.06;86.56;96310.85;105445;1310;30719;-86
2021/11/22 03:12:45;;;;;;;50.60;29.90;;;;;;;5.05;86.69;96314.94;105333;1309;28128;-85
2021/11/22 03:15:17;;;;;;;46.00;28.10;;;;;;;5.06;86.85;96315.44;105434;1309;28354;-85
2021/11/22 03:17:49;;;;;;;48.30;27.00;;;;;;;5.07;87.00;96316.27;105386;1309;27044;-85
2021/11/22 03:20:22;;;;;;;48.10;28.30;;;;;;;5.04;86.99;96314.25;105440;1309;30075;-85
2021/11/22 03:22:54;;;;;;;43.70;26.70;;;;;;;5.03;86.89;96315.77;105433;1311;37050;-84
2021/11/22 03:25:30;;;;;;;44.70;28.50;;;;;;;5.04;87.09;96314.93;105403;1309;28437;-84
2021/11/22 03:28:02;;;;;;;46.10;29.00;;;;;;;5.04;87.16;96321.71;105400;1309;27892;-85
2021/11/22 03:30:33;;;;;;;48.90;30.70;;;;;;;5.04;87.13;96321.39;105421;1310;27544;-86
2021/11/22 03:33:05;;;;;;;46.80;28.60;;;;;;;5.02;87.14;96319.91;105429;1311;28821;-85
2021/11/22 03:35:37;;;;;;;45.40;27.50;;;;;;;5.02;87.33;96320.27;105383;1307;26007;-85
2021/11/22 03:38:10;;;;;;;45.00;28.70;;;;;;;5.00;87.12;96319.21;105449;1309;29425;-85
2021/11/22 03:40:43;;;;;;;46.40;28.80;;;;;;;5.00;87.20;96320.68;105425;1315;28170;-85
2021/11/22 03:43:18;;;;;;;44.50;27.10;;;;;;;4.98;87.22;96321.40;105394;1309;39458;-85
2021/11/22 03:45:49;;;;;;;46.50;29.10;;;;;;;4.96;87.28;96320.45;105497;1313;28162;-85
2021/11/22 03:48:20;;;;;;;46.10;29.20;;;;;;;4.94;87.17;96321.53;105437;1315;38852;-85
2021/11/22 03:50:51;;;;;;;43.50;27.80;;;;;;;4.92;87.46;96328.39;105482;1309;27707;-85
2021/11/22 03:53:22;;;;;;;47.90;29.60;;;;;;;4.90;87.34;96332.92;105461;1311;26768;-85
2021/11/22 03:55:53;;;;;;;44.40;27.60;;;;;;;4.89;87.36;96337.06;105416;1310;29296;-84
2021/11/22 03:58:24;;;;;;;42.60;28.50;;;;;;;4.85;87.64;96335.89;105446;1313;28529;-84
2021/11/22 04:00:55;;;;;;;50.30;29.10;;;;;;;4.81;87.78;96336.91;105410;1310;27827;-85
2021/11/22 04:03:26;;;;;;;45.70;28.80;;;;;;;4.79;87.70;96335.20;105447;1309;40212;-86
2021/11/22 04:05:58;;;;;;;46.50;27.50;;;;;;;4.74;87.94;96332.73;105367;1310;42169;-85
2021/11/22 04:08:29;;;;;;;47.00;29.80;;;;;;;4.67;87.93;96333.55;105452;1309;41574;-85
2021/11/22 04:11:00;;;;;;;47.80;29.10;;;;;;;4.60;87.88;96333.73;105467;1310;29924;-86
2021/11/22 04:13:31;;;;;;;44.80;27.80;;;;;;;4.56;88.06;96334.49;105463;1310;27557;-85
2021/11/22 04:16:02;;;;;;;44.60;28.30;;;;;;;4.56;88.20;96336.27;105335;1309;63516;-86
2021/11/22 04:18:34;;;;;;;44.70;26.50;;;;;;;4.52;88.31;96339.34;105437;1309;32250;-85
2021/11/22 04:21:05;;;;;;;47.70;27.90;;;;;;;4.52;88.47;96349.15;105471;1309;29202;-86
2021/11/22 04:23:37;;;;;;;47.90;29.40;;;;;;;4.51;88.56;96353.50;105404;1309;29058;-86
2021/11/22 04:26:10;;;;;;;45.30;27.30;;;;;;;4.51;88.76;96356.48;105410;1309;37279;-88
2021/11/22 04:28:41;;;;;;;44.90;27.60;;;;;;;4.51;88.83;96354.48;105457;1309;27559;-87
2021/11/22 04:31:12;;;;;;;46.00;27.80;;;;;;;4.48;88.92;96356.65;105433;1309;29033;-86
2021/11/22 04:33:44;;;;;;;42.80;25.80;;;;;;;4.44;89.11;96353.25;105405;1309;29880;-86
2021/11/22 04:36:15;;;;;;;42.60;25.40;;;;;;;4.42;89.02;96359.16;105515;1309;27340;-87
2021/11/22 04:38:46;;;;;;;46.50;27.60;;;;;;;4.39;89.22;96358.20;105463;1312;26912;-87
2021/11/22 04:41:18;;;;;;;46.80;27.10;;;;;;;4.37;89.32;96362.98;105375;1307;30130;-86
2021/11/22 04:43:49;;;;;;;43.70;26.20;;;;;;;4.36;89.29;96362.71;105443;1313;30203;-87
2021/11/22 04:46:20;;;;;;;44.60;26.40;;;;;;;4.36;89.32;96368.13;105511;1313;33917;-87
2021/11/22 04:48:50;;;;;;;42.90;25.80;;;;;;;4.37;89.50;96368.67;105458;1310;37000;-87
2021/11/22 04:51:21;;;;;;;39.10;24.40;;;;;;;4.42;89.54;96373.76;105470;1311;28047;-87
2021/11/22 04:53:52;;;;;;;32.00;21.90;;;;;;;4.46;89.38;96370.95;105399;1309;25638;-87
2021/11/22 04:56:24;;;;;;;32.10;20.60;;;;;;;4.47;89.32;96372.70;105428;1309;28048;-85
2021/11/22 04:58:55;;;;;;;32.20;21.30;;;;;;;4.49;89.25;96371.78;105437;1311;29118;-86
2021/11/22 05:01:26;;;;;;;33.60;21.00;;;;;;;4.53;89.18;96370.95;105370;1307;27890;-87
2021/11/22 05:03:57;;;;;;;38.50;22.40;;;;;;;4.55;89.01;96372.74;105396;1309;34170;-87
2021/11/22 05:06:28;;;;;;;37.90;23.40;;;;;;;4.55;88.96;96376.54;105399;1309;28398;-87
2021/11/22 05:08:59;;;;;;;39.10;24.00;;;;;;;4.57;88.81;96384.31;105463;1309;28381;-87
2021/11/22 05:11:30;;;;;;;44.90;25.70;;;;;;;4.56;88.86;96383.95;105452;1310;28476;-87
2021/11/22 05:14:01;;;;;;;39.50;25.70;;;;;;;4.56;88.80;96386.10;105470;1313;25390;-87
2021/11/22 05:16:32;;;;;;;41.10;25.50;;;;;;;4.58;88.82;96387.48;105439;1309;27567;-87
2021/11/22 05:19:04;;;;;;;42.90;27.20;;;;;;;4.60;88.67;96383.98;105414;1311;28218;-87
2021/11/22 05:21:35;;;;;;;40.80;26.00;;;;;;;4.60;88.84;96378.80;105470;1310;26847;-86
2021/11/22 05:24:06;;;;;;;37.20;23.70;;;;;;;4.60;88.65;96382.35;105404;1309;28903;-86
2021/11/22 05:26:38;;;;;;;37.60;23.90;;;;;;;4.57;88.50;96390.20;105447;1314;25333;-86
2021/11/22 05:29:10;;;;;;;44.00;25.50;;;;;;;4.55;88.61;96395.27;105414;1311;26107;-86
2021/11/22 05:31:41;;;;;;;46.00;27.90;;;;;;;4.52;88.70;96400.45;105401;1315;27692;-86
2021/11/22 05:34:12;;;;;;;46.40;26.10;;;;;;;4.51;88.62;96408.63;105405;1309;28628;-85
2021/11/22 05:36:43;;;;;;;43.00;26.40;;;;;;;4.53;88.72;96412.01;105327;1316;28538;-86
2021/11/22 05:39:14;;;;;;;39.50;24.40;;;;;;;4.54;88.80;96411.64;105364;1309;25244;-86
2021/11/22 05:41:45;;;;;;;37.30;23.30;;;;;;;4.55;88.90;96409.05;105373;1310;26929;-86
2021/11/22 05:44:17;;;;;;;42.50;26.00;;;;;;;4.56;88.94;96410.25;105382;1310;28816;-86
2021/11/22 05:46:50;;;;;;;45.40;27.20;;;;;;;4.55;88.88;96412.02;105379;1314;25958;-86
2021/11/22 05:49:21;;;;;;;50.40;30.70;;;;;;;4.51;88.81;96414.02;105415;1310;51852;-86
2021/11/22 05:51:54;;;;;;;45.80;30.80;;;;;;;4.49;89.03;96416.77;105377;1311;26348;-86
2021/11/22 05:54:25;;;;;;;45.70;25.70;;;;;;;4.50;89.07;96407.86;105339;1315;26791;-86
2021/11/22 05:56:56;;;;;;;45.00;26.90;;;;;;;4.51;88.88;96406.73;105262;1309;35519;-86
2021/11/22 05:59:27;;;;;;;44.10;26.80;;;;;;;4.53;89.05;96407.48;105347;1310;31021;-86
2021/11/22 06:01:58;;;;;;;46.50;27.80;;;;;;;4.57;89.08;96407.05;105351;1310;34944;-86
2021/11/22 06:04:29;;;;;;;51.20;30.20;;;;;;;4.60;88.94;96409.55;105364;1309;26694;-87
2021/11/22 06:07:00;;;;;;;58.20;32.50;;;;;;;4.61;88.87;96414.29;105340;1315;33363;-86
2021/11/22 06:09:32;;;;;;;50.90;31.20;;;;;;;4.62;89.02;96417.45;105338;1314;31116;-86
2021/11/22 06:12:03;;;;;;;48.40;32.00;;;;;;;4.62;88.82;96422.23;105350;1309;26737;-86
2021/11/22 06:14:35;;;;;;;53.60;31.80;;;;;;;4.61;88.88;96430.58;105332;1310;27983;-86
2021/11/22 06:17:06;;;;;;;54.80;31.80;;;;;;;4.61;88.99;96433.92;105374;1314;28392;-86
2021/11/22 06:19:37;;;;;;;52.30;30.80;;;;;;;4.57;89.05;96438.35;105336;1314;34979;-87
2021/11/22 06:22:08;;;;;;;56.20;33.00;;;;;;;4.52;89.39;96441.28;105338;1310;28487;-85
2021/11/22 06:24:39;;;;;;;54.10;33.70;;;;;;;4.47;89.51;96445.84;105354;1312;28209;-86
2021/11/22 06:27:11;;;;;;;53.80;34.80;;;;;;;4.44;89.82;96448.85;105342;1309;34844;-87
2021/11/22 06:29:42;;;;;;;54.40;32.60;;;;;;;4.43;89.99;96454.02;105333;1313;26861;-86
2021/11/22 06:32:14;;;;;;;55.70;33.60;;;;;;;4.43;90.01;96459.38;105376;1310;31452;-86
2021/11/22 06:34:46;;;;;;;49.20;29.50;;;;;;;4.44;90.05;96466.17;105394;1311;30049;-86
2021/11/22 06:37:17;;;;;;;54.30;33.90;;;;;;;4.47;90.24;96474.50;105369;1312;28593;-86
2021/11/22 06:39:48;;;;;;;54.30;32.40;;;;;;;4.50;90.28;96475.80;105418;1313;26742;-86
2021/11/22 06:42:21;;;;;;;53.60;29.80;;;;;;;4.56;90.41;96475.94;105366;1309;33215;-86
2021/11/22 06:44:53;;;;;;;48.60;29.80;;;;;;;4.61;90.39;96476.56;105423;1312;26459;-86
2021/11/22 06:47:25;;;;;;;45.90;29.00;;;;;;;4.64;90.23;96478.04;105360;1309;28819;-86
2021/11/22 06:49:57;;;;;;;49.80;29.30;;;;;;;4.67;90.12;96475.20;105333;1309;29516;-86
2021/11/22 06:52:29;;;;;;;48.50;29.80;;;;;;;4.69;89.95;96480.35;105401;1311;29749;-86
2021/11/22 06:55:00;;;;;;;45.40;28.70;;;;;;;4.72;90.02;96487.06;105299;1309;27182;-86
2021/11/22 06:57:31;;;;;;;47.40;29.90;;;;;;;4.80;90.05;96495.09;105294;1309;28886;-86
2021/11/22 07:00:02;;;;;;;49.70;29.30;;;;;;;4.86;90.39;96497.98;105390;1310;30364;-86
2021/11/22 07:02:33;;;;;;;51.40;31.10;;;;;;;4.85;89.92;96499.77;105368;1309;28709;-86
2021/11/22 07:05:04;;;;;;;51.60;31.50;;;;;;;4.84;89.99;96502.80;105404;1310;25063;-86
2021/11/22 07:07:36;;;;;;;49.70;31.60;;;;;;;4.83;89.93;96498.60;105370;1315;30513;-86
2021/11/22 07:10:08;;;;;;;54.60;32.00;;;;;;;4.84;90.08;96494.83;105396;1309;29569;-86
2021/11/22 07:12:39;;;;;;;51.40;31.20;;;;;;;4.88;90.11;96497.08;105356;1309;30206;-86
2021/11/22 07:15:10;;;;;;;50.50;30.90;;;;;;;4.94;90.14;96494.58;105366;1309;29776;-86
2021/11/22 07:17:41;;;;;;;49.00;28.30;;;;;;;4.99;90.27;96496.27;105320;1314;30229;-86
2021/11/22 07:20:12;;;;;;;49.60;29.40;;;;;;;5.06;90.18;96500.34;105336;1309;30120;-86
2021/11/22 07:22:44;;;;;;;53.20;30.80;;;;;;;5.13;90.27;96499.58;105356;1310;30915;-86
2021/11/22 07:25:15;;;;;;;47.10;28.50;;;;;;;5.17;90.17;96499.52;105392;1314;27875;-87
2021/11/22 07:27:46;;;;;;;50.90;29.90;;;;;;;5.15;89.92;96503.70;105346;1313;30049;-87
2021/11/22 07:30:20;;;;;;;49.40;29.70;;;;;;;5.15;89.86;96509.95;105342;1309;29068;-87
2021/11/22 07:32:54;;;;;;;54.00;31.10;;;;;;;5.16;89.92;96511.85;105414;1310;28118;-87
2021/11/22 07:35:26;;;;;;;49.10;30.70;;;;;;;5.15;90.00;96521.25;105389;1310;29015;-87
2021/11/22 07:37:57;;;;;;;49.20;30.40;;;;;;;5.16;89.86;96522.36;105397;1309;28399;-87
2021/11/22 07:40:28;;;;;;;65.30;36.50;;;;;;;5.19;90.02;96523.81;105475;1309;27852;-86
2021/11/22 07:42:59;;;;;;;57.60;35.20;;;;;;;5.18;89.81;96528.32;105425;1313;30549;-86
2021/11/22 07:45:30;;;;;;;49.50;30.50;;;;;;;5.19;89.98;96530.27;105370;1315;28272;-87
2021/11/22 07:48:01;;;;;;;48.80;31.10;;;;;;;5.20;89.74;96535.75;105357;1309;29990;-87
2021/11/22 07:50:32;;;;;;;50.00;28.70;;;;;;;5.21;89.86;96539.36;105375;1310;31277;-86
2021/11/22 07:53:03;;;;;;;45.60;27.50;;;;;;;5.21;89.69;96544.34;105333;1309;30571;-86
2021/11/22 07:55:35;;;;;;;45.50;27.70;;;;;;;5.15;89.51;96550.79;105370;1310;31337;-87
2021/11/22 07:58:07;;;;;;;45.90;28.10;;;;;;;5.07;89.59;96557.99;105399;1309;29603;-86
2021/11/22 08:00:38;;;;;;;39.40;24.70;;;;;;;5.01;89.65;96552.61;105380;1310;28525;-87
2021/11/22 08:03:09;;;;;;;46.60;26.90;;;;;;;4.96;89.99;96559.34;105366;1310;30069;-87
2021/11/22 08:05:41;;;;;;;44.60;26.70;;;;;;;4.92;90.16;96563.06;105394;1307;29375;-87
2021/11/22 08:08:12;;;;;;;43.10;26.00;;;;;;;4.90;90.64;96564.02;105403;1311;34059;-86
2021/11/22 08:10:47;;;;;;;49.40;28.70;;;;;;;4.88;90.85;96572.09;105351;1311;40670;-87
2021/11/22 08:13:18;;;;;;;45.90;28.80;;;;;;;4.84;91.06;96569.31;105446;1309;31378;-88
2021/11/22 08:15:49;;;;;;;49.80;26.90;;;;;;;4.81;91.47;96572.70;105463;1312;29176;-87
2021/11/22 08:18:20;;;;;;;55.60;33.60;;;;;;;4.76;91.61;96574.83;105463;1310;29530;-87
2021/11/22 08:20:51;;;;;;;45.70;28.60;;;;;;;4.75;92.08;96577.06;105456;1310;27704;-87
2021/11/22 08:23:23;;;;;;;58.00;33.70;;;;;;;4.74;92.15;96577.20;105443;1309;25330;-87
2021/11/22 08:25:54;;;;;;;55.00;32.10;;;;;;;4.76;92.35;96577.75;105360;1311;31764;-87
2021/11/22 08:28:26;;;;;;;51.50;29.70;;;;;;;4.82;92.41;96578.00;105370;1310;46516;-87
2021/11/22 08:30:57;;;;;;;55.70;33.10;;;;;;;4.86;92.30;96581.58;105381;1309;37459;-87
2021/11/22 08:33:29;;;;;;;50.90;33.20;;;;;;;4.88;92.47;96584.48;105356;1307;39447;-87
2021/11/22 08:36:00;;;;;;;49.00;29.20;;;;;;;4.92;92.75;96589.22;105356;1316;30661;-87
2021/11/22 08:38:31;;;;;;;49.80;29.40;;;;;;;4.97;92.59;96589.55;105382;1311;28998;-87
2021/11/22 08:41:03;;;;;;;49.10;29.70;;;;;;;4.99;92.70;96590.85;105406;1310;28225;-87
2021/11/22 08:43:35;;;;;;;51.90;31.40;;;;;;;5.05;92.67;96590.65;105370;1315;28442;-87
2021/11/22 08:46:05;;;;;;;42.50;27.30;;;;;;;5.11;92.62;96597.95;105382;1309;28851;-87
2021/11/22 08:48:37;;;;;;;48.20;27.80;;;;;;;5.20;92.89;96598.01;105348;1309;27320;-87
2021/11/22 08:51:08;;;;;;;43.70;27.90;;;;;;;5.30;92.89;96598.59;105387;1313;28106;-87
2021/11/22 08:53:39;;;;;;;45.40;26.70;;;;;;;5.42;92.93;96594.64;105356;1313;26420;-87
2021/11/22 08:56:10;;;;;;;40.90;25.00;;;;;;;5.51;92.87;96600.58;105392;1311;30174;-87
2021/11/22 08:58:42;;;;;;;40.20;25.10;;;;;;;5.57;92.68;96598.75;105344;1314;29693;-87
2021/11/22 09:01:12;;;;;;;41.50;23.30;;;;;;;5.65;92.54;96601.89;105366;1311;29462;-87
2021/11/22 09:03:43;;;;;;;38.90;25.80;;;;;;;5.70;92.41;96604.09;105336;1309;34794;-87
2021/11/22 09:06:17;;;;;;;43.80;26.60;;;;;;;5.72;92.22;96602.22;105392;1313;26080;-87
2021/11/22 09:08:50;;;;;;;43.60;26.90;;;;;;;5.76;91.98;96606.14;105505;1311;27103;-87
2021/11/22 09:11:21;;;;;;;39.60;25.30;;;;;;;5.80;91.87;96602.16;105416;1313;28062;-87
2021/11/22 09:13:52;;;;;;;38.40;24.70;;;;;;;5.87;91.88;96604.16;105371;1309;28657;-87
2021/11/22 09:16:28;;;;;;;40.60;24.50;;;;;;;5.88;91.58;96605.38;105333;1313;27585;-87
2021/11/22 09:19:01;;;;;;;37.30;23.90;;;;;;;5.90;91.59;96602.70;105374;1313;27672;-86
2021/11/22 09:21:32;;;;;;;48.00;30.20;;;;;;;5.91;91.55;96604.70;105331;1314;29471;-86
2021/11/22 09:24:05;;;;;;;57.30;33.40;;;;;;;5.89;91.45;96607.20;105411;1313;25607;-88
2021/11/22 09:26:36;;;;;;;51.90;32.70;;;;;;;5.88;91.29;96609.06;105357;1313;32119;-87
2021/11/22 09:29:08;;;;;;;52.10;30.90;;;;;;;5.86;91.42;96606.84;105348;1313;30769;-87
2021/11/22 09:31:39;;;;;;;50.40;30.70;;;;;;;5.85;91.59;96601.25;105459;1310;30406;-88
2021/11/22 09:34:10;;;;;;;41.70;27.70;;;;;;;5.84;91.33;96603.67;105351;1313;26784;-87
2021/11/22 09:36:42;;;;;;;46.50;30.80;;;;;;;5.83;91.17;96601.13;105342;1311;29737;-87
2021/11/22 09:39:13;;;;;;;44.80;27.70;;;;;;;5.85;91.27;96601.36;105319;1314;29491;-87
2021/11/22 09:41:46;;;;;;;48.00;31.40;;;;;;;5.89;91.34;96602.63;105330;1316;33048;-86
2021/11/22 09:44:20;;;;;;;43.20;27.50;;;;;;;5.94;91.49;96604.23;105349;1315;30186;-87
2021/11/22 09:46:52;;;;;;;46.50;28.90;;;;;;;5.97;91.61;96607.18;105371;1311;28068;-87
2021/11/22 09:49:24;;;;;;;37.70;23.90;;;;;;;5.96;91.48;96607.29;105357;1307;29131;-87
2021/11/22 09:51:56;;;;;;;36.20;24.00;;;;;;;5.85;91.32;96609.19;105358;1309;28195;-87
2021/11/22 09:54:27;;;;;;;41.90;24.90;;;;;;;5.79;91.44;96615.36;105373;1313;30439;-86
2021/11/22 09:56:58;;;;;;;38.20;23.60;;;;;;;5.84;91.89;96608.23;105434;1313;27608;-86
2021/11/22 09:59:30;;;;;;;37.20;23.50;;;;;;;5.88;91.87;96611.75;105392;1313;25620;-87
2021/11/22 10:02:01;;;;;;;43.10;28.20;;;;;;;5.83;91.54;96607.39;105407;1315;29340;-86
2021/11/22 10:04:33;;;;;;;41.60;26.70;;;;;;;5.71;91.14;96614.41;105465;1310;26850;-86
2021/11/22 10:07:07;;;;;;;37.30;24.80;;;;;;;5.67;91.47;96614.43;105367;1310;27538;-86
2021/11/22 10:09:45;;;;;;;37.30;24.90;;;;;;;5.68;91.60;96616.17;105442;1311;27113;-86
2021/11/22 10:12:20;;;;;;;46.10;28.50;;;;;;;5.63;91.59;96616.91;105356;1312;30858;-85
2021/11/22 10:14:54;;;;;;;39.80;26.10;;;;;;;5.56;91.66;96615.09;105147;1310;319299;-86
2021/11/22 10:17:30;;;;;;;46.10;28.80;;;;;;;5.54;91.76;96613.50;105371;1310;27142;-86
2021/11/22 10:20:16;;;;;;;43.50;27.50;;;;;;;5.59;91.95;96616.33;105449;1311;27021;-86
2021/11/22 10:22:51;;;;;;;39.30;25.90;;;;;;;5.63;92.06;96616.95;105362;1315;28400;-86
2021/11/22 10:25:34;;;;;;;36.90;22.80;;;;;;;5.66;92.18;96618.41;105393;1309;29935;-86
2021/11/22 10:28:13;;;;;;;34.80;22.90;;;;;;;5.66;91.74;96614.79;105303;1311;27557;-86
2021/11/22 10:30:47;;;;;;;37.00;23.50;;;;;;;5.68;91.87;96622.07;105319;1309;29169;-86
2021/11/22 10:33:20;;;;;;;31.20;19.60;;;;;;;5.70;92.02;96617.66;105344;1309;29629;-86
2021/11/22 10:35:53;;;;;;;28.30;19.80;;;;;;;5.67;91.90;96618.23;105355;1309;28313;-86
2021/11/22 10:38:28;;;;;;;27.30;17.80;;;;;;;5.58;91.52;96619.48;105359;1313;31998;-86
2021/11/22 10:41:04;;;;;;;22.30;14.80;;;;;;;5.54;91.87;96622.96;105438;1315;28264;-86
2021/11/22 10:43:39;;;;;;;24.60;16.80;;;;;;;5.51;91.92;96622.36;105325;1311;27357;-86
2021/11/22 10:46:12;;;;;;;26.60;17.70;;;;;;;5.50;91.83;96623.70;105285;1313;26143;-86
2021/11/22 10:48:48;;;;;;;21.80;13.70;;;;;;;5.46;91.69;96621.53;105347;1309;25894;-86
2021/11/22 10:51:23;;;;;;;21.40;13.30;;;;;;;5.43;91.80;96627.09;105315;1311;31097;-86
2021/11/22 10:53:57;;;;;;;24.60;15.10;;;;;;;5.45;91.86;96627.38;105309;1309;27401;-86
2021/11/22 10:56:29;;;;;;;45.60;31.00;;;;;;;5.50;92.22;96627.70;105365;1314;29911;-86
2021/11/22 10:59:07;;;;;;;41.90;33.40;;;;;;;5.51;92.05;96628.08;105396;1313;30941;-85
2021/11/22 11:01:44;;;;;;;37.60;27.20;;;;;;;5.50;92.23;96629.17;105358;1312;28611;-86
2021/11/22 11:04:21;;;;;;;42.50;31.00;;;;;;;5.51;92.31;96626.66;105377;1313;28209;-86
2021/11/22 11:06:57;;;;;;;32.90;21.80;;;;;;;5.43;92.17;96631.44;105459;1311;30441;-86
2021/11/22 11:09:33;;;;;;;35.70;22.60;;;;;;;5.37;92.10;96632.38;105391;1309;31215;-86
2021/11/22 11:12:10;;;;;;;98.70;69.20;;;;;;;5.29;92.28;96634.11;105361;1309;26824;-86
2021/11/22 11:14:45;;;;;;;51.00;32.30;;;;;;;5.27;92.55;96636.14;105347;1311;30181;-86
2021/11/22 11:17:23;;;;;;;39.20;23.80;;;;;;;5.27;92.61;96639.19;105333;1312;31922;-86
2021/11/22 11:19:56;;;;;;;37.80;22.10;;;;;;;5.26;92.82;96634.19;105378;1309;31508;-85
2021/11/22 11:22:30;;;;;;;36.90;23.90;;;;;;;5.25;92.69;96643.64;105321;1311;29326;-86
2021/11/22 11:25:01;;;;;;;34.90;21.80;;;;;;;5.25;93.02;96646.16;105422;1310;31725;-86
2021/11/22 11:27:33;;;;;;;33.40;21.00;;;;;;;5.29;93.19;96644.79;105362;1313;30387;-84
2021/11/22 11:30:07;;;;;;;33.00;19.20;;;;;;;5.33;93.13;96642.04;105287;1314;38576;-85
2021/11/22 11:32:39;;;;;;;29.30;20.20;;;;;;;5.34;93.41;96641.38;105390;1310;28675;-86
2021/11/22 11:35:17;;;;;;;26.60;16.30;;;;;;;5.30;93.10;96640.12;105344;1315;28841;-86
2021/11/22 11:38:15;;;;;;;25.90;14.40;;;;;;;5.24;93.14;96642.48;105347;1315;30604;-86